createdAt,value
2023-05-22T00:00:17.811Z,100.00
2023-05-22T00:03:08.526Z,100.00
2023-05-22T00:05:59.020Z,100.00
2023-05-22T00:08:47.285Z,100.00
2023-05-22T00:11:36.614Z,100.00
2023-05-22T00:14:24.527Z,100.00
2023-05-22T00:17:15.164Z,100.00
2023-05-22T00:20:07.150Z,100.00
2023-05-22T00:22:57.202Z,100.00
2023-05-22T00:25:44.794Z,100.00
2023-05-22T00:28:32.654Z,100.00
2023-05-22T00:31:20.319Z,100.00
2023-05-22T00:34:08.444Z,100.00
2023-05-22T00:36:59.611Z,100.00
2023-05-22T00:39:47.917Z,100.00
2023-05-22T00:42:35.746Z,100.00
2023-05-22T00:45:23.496Z,100.00
2023-05-22T00:48:12.392Z,100.00
2023-05-22T00:51:01.959Z,100.00
2023-05-22T00:53:53.329Z,100.00
2023-05-22T00:56:43.146Z,100.00
2023-05-22T00:59:32.290Z,100.00
2023-05-22T01:02:21.181Z,100.00
2023-05-22T01:05:11.313Z,100.00
2023-05-22T01:07:58.925Z,100.00
2023-05-22T01:10:54.167Z,100.00
2023-05-22T01:13:54.953Z,100.00
2023-05-22T01:16:54.848Z,100.00
2023-05-22T01:20:10.704Z,100.00
2023-05-22T01:23:54.072Z,100.00
2023-05-22T01:27:00.809Z,100.00
2023-05-22T01:30:05.252Z,100.00
2023-05-22T01:32:59.400Z,100.00
2023-05-22T01:35:53.991Z,100.00
2023-05-22T01:38:43.789Z,100.00
2023-05-22T01:41:32.499Z,100.00
2023-05-22T01:44:22.143Z,100.00
2023-05-22T01:47:11.051Z,100.00
2023-05-22T01:50:00.436Z,100.00
2023-05-22T01:53:13.325Z,100.00
2023-05-22T01:56:08.535Z,100.00
2023-05-22T01:59:05.592Z,100.00
2023-05-22T02:01:56.394Z,100.00
2023-05-22T02:04:50.359Z,100.00
2023-05-22T02:07:43.258Z,100.00
2023-05-22T02:10:32.996Z,100.00
2023-05-22T02:13:23.827Z,100.00
2023-05-22T02:16:12.998Z,100.00
2023-05-22T02:19:06.617Z,100.00
2023-05-22T02:21:57.294Z,100.00
2023-05-22T02:24:51.775Z,100.00
2023-05-22T02:27:42.667Z,100.00
2023-05-22T02:30:35.019Z,100.00
2023-05-22T02:33:24.866Z,100.00
2023-05-22T02:36:14.647Z,100.00
2023-05-22T02:39:02.475Z,100.00
2023-05-22T02:41:51.656Z,100.00
2023-05-22T02:44:39.677Z,100.00
2023-05-22T02:47:27.861Z,100.00
2023-05-22T02:50:16.009Z,100.00
2023-05-22T02:53:03.818Z,100.00
2023-05-22T02:55:53.967Z,100.00
2023-05-22T02:58:43.376Z,100.00
2023-05-22T03:01:31.467Z,100.00
2023-05-22T03:04:19.149Z,100.00
2023-05-22T03:07:08.210Z,100.00
2023-05-22T03:09:56.516Z,100.00
2023-05-22T03:12:44.803Z,100.00
2023-05-22T03:15:33.866Z,100.00
2023-05-22T03:18:21.984Z,100.00
2023-05-22T03:21:10.520Z,100.00
2023-05-22T03:23:58.422Z,100.00
2023-05-22T03:26:49.286Z,100.00
2023-05-22T03:29:39.402Z,100.00
2023-05-22T03:32:30.550Z,100.00
2023-05-22T03:35:19.972Z,100.00
2023-05-22T03:38:07.956Z,100.00
2023-05-22T03:40:55.846Z,100.00
2023-05-22T03:43:45.033Z,100.00
2023-05-22T03:46:33.062Z,100.00
2023-05-22T03:49:28.993Z,100.00
2023-05-22T03:52:16.935Z,100.00
2023-05-22T03:55:04.989Z,100.00
2023-05-22T03:57:52.299Z,100.00
2023-05-22T04:00:40.472Z,100.00
2023-05-22T04:03:28.465Z,100.00
2023-05-22T04:06:22.038Z,100.00
2023-05-22T04:09:12.683Z,100.00
2023-05-22T04:12:01.817Z,100.00
2023-05-22T04:14:49.912Z,100.00
2023-05-22T04:17:42.175Z,100.00
2023-05-22T04:20:30.141Z,100.00
2023-05-22T04:23:19.186Z,100.00
2023-05-22T04:26:08.719Z,100.00
2023-05-22T04:28:56.440Z,100.00
2023-05-22T04:31:44.733Z,100.00
2023-05-22T04:34:33.744Z,100.00
2023-05-22T04:37:21.989Z,100.00
2023-05-22T04:40:15.123Z,100.00
2023-05-22T04:43:03.658Z,100.00
2023-05-22T04:45:51.699Z,100.00
2023-05-22T04:48:40.237Z,100.00
2023-05-22T04:51:28.094Z,100.00
2023-05-22T04:54:15.892Z,100.00
2023-05-22T04:57:05.875Z,100.00
2023-05-22T04:59:54.373Z,100.00
2023-05-22T05:02:44.050Z,100.00
2023-05-22T05:05:31.979Z,100.00
2023-05-22T05:08:20.489Z,100.00
2023-05-22T05:11:08.432Z,100.00
2023-05-22T05:13:57.692Z,100.00
2023-05-22T05:16:46.933Z,100.00
2023-05-22T05:19:36.843Z,100.00
2023-05-22T05:22:25.240Z,100.00
2023-05-22T05:25:13.976Z,100.00
2023-05-22T05:28:01.654Z,100.00
2023-05-22T05:30:50.866Z,100.00
2023-05-22T05:33:38.296Z,100.00
2023-05-22T05:36:27.407Z,100.00
2023-05-22T05:39:15.309Z,100.00
2023-05-22T05:42:02.760Z,100.00
2023-05-22T05:44:50.395Z,100.00
2023-05-22T05:47:39.379Z,100.00
2023-05-22T05:50:27.345Z,100.00
2023-05-22T05:53:17.346Z,100.00
2023-05-22T05:56:06.823Z,100.00
2023-05-22T05:58:54.661Z,100.00
2023-05-22T06:01:48.226Z,100.00
2023-05-22T06:04:38.792Z,100.00
2023-05-22T06:07:30.145Z,100.00
2023-05-22T06:10:18.917Z,100.00
2023-05-22T06:13:09.706Z,100.00
2023-05-22T06:16:01.320Z,100.00
2023-05-22T06:18:52.509Z,100.00
2023-05-22T06:21:42.347Z,100.00
2023-05-22T06:24:32.070Z,100.00
2023-05-22T06:27:20.326Z,100.00
2023-05-22T06:30:10.053Z,100.00
2023-05-22T06:32:58.584Z,100.00
2023-05-22T06:35:46.604Z,100.00
2023-05-22T06:38:38.060Z,100.00
2023-05-22T06:41:26.187Z,100.00
2023-05-22T06:44:13.995Z,100.00
2023-05-22T06:47:02.048Z,100.00
2023-05-22T06:49:49.810Z,100.00
2023-05-22T06:52:38.926Z,100.00
2023-05-22T06:55:28.412Z,100.00
2023-05-22T06:58:16.094Z,100.00
2023-05-22T07:01:04.101Z,100.00
2023-05-22T07:03:51.852Z,100.00
2023-05-22T07:06:41.544Z,100.00
2023-05-22T07:09:29.458Z,100.00
2023-05-22T07:12:20.452Z,100.00
2023-05-22T07:15:12.225Z,100.00
2023-05-22T07:18:00.425Z,100.00
2023-05-22T07:20:48.449Z,100.00
2023-05-22T07:23:36.059Z,100.00
2023-05-22T07:26:23.695Z,100.00
2023-05-22T07:29:17.819Z,100.00
2023-05-22T07:32:06.161Z,100.00
2023-05-22T07:34:53.978Z,100.00
2023-05-22T07:37:41.830Z,100.00
2023-05-22T07:40:29.941Z,100.00
2023-05-22T07:43:17.787Z,100.00
2023-05-22T07:46:07.220Z,100.00
2023-05-22T07:48:55.057Z,100.00
2023-05-22T07:51:43.254Z,100.00
2023-05-22T07:54:30.909Z,100.00
2023-05-22T07:57:18.776Z,100.00
2023-05-22T08:00:13.913Z,100.00
2023-05-22T08:03:03.824Z,100.00
2023-05-22T08:05:51.863Z,96.92
2023-05-22T08:08:39.343Z,86.75
2023-05-22T08:11:27.613Z,97.54
2023-05-22T08:14:16.043Z,94.02
2023-05-22T08:17:04.354Z,86.65
2023-05-22T08:19:53.459Z,75.66
2023-05-22T08:22:41.872Z,74.78
2023-05-22T08:25:29.752Z,96.55
2023-05-22T08:28:17.708Z,86.31
2023-05-22T08:31:05.270Z,87.00
2023-05-22T08:33:52.707Z,86.27
2023-05-22T08:36:41.671Z,90.73
2023-05-22T08:39:30.771Z,88.48
2023-05-22T08:42:18.529Z,81.14
2023-05-22T08:45:08.149Z,77.04
2023-05-22T08:47:59.759Z,80.69
2023-05-22T08:50:57.120Z,75.83
2023-05-22T08:53:52.820Z,69.88
2023-05-22T08:56:52.883Z,73.24
2023-05-22T08:59:45.834Z,71.87
2023-05-22T09:02:34.374Z,64.71
2023-05-22T09:05:26.560Z,69.50
2023-05-22T09:08:20.459Z,70.10
2023-05-22T09:11:10.957Z,57.70
2023-05-22T09:14:09.379Z,69.46
2023-05-22T09:16:56.969Z,67.47
2023-05-22T09:19:46.674Z,58.29
2023-05-22T09:22:39.232Z,71.59
2023-05-22T09:25:27.514Z,64.86
2023-05-22T09:28:16.308Z,58.98
2023-05-22T09:31:06.340Z,57.63
2023-05-22T09:33:55.942Z,57.79
2023-05-22T09:36:43.813Z,58.55
2023-05-22T09:39:41.867Z,56.45
2023-05-22T09:42:30.130Z,55.34
2023-05-22T09:45:24.083Z,55.34
2023-05-22T09:48:12.648Z,56.83
2023-05-22T09:51:02.409Z,52.53
2023-05-22T09:53:53.054Z,57.71
2023-05-22T09:56:51.825Z,56.50
2023-05-22T09:59:41.726Z,48.88
2023-05-22T10:02:34.614Z,55.72
2023-05-22T10:05:28.796Z,49.94
2023-05-22T10:08:24.491Z,57.34
2023-05-22T10:11:13.705Z,56.16
2023-05-22T10:14:05.261Z,56.21
2023-05-22T10:16:54.658Z,55.02
2023-05-22T10:19:48.186Z,52.28
2023-05-22T10:22:38.555Z,54.10
2023-05-22T10:25:27.207Z,50.44
2023-05-22T10:28:27.561Z,54.38
2023-05-22T10:31:28.475Z,52.64
2023-05-22T10:34:29.567Z,47.08
2023-05-22T10:37:41.531Z,42.75
2023-05-22T10:40:33.635Z,54.61
2023-05-22T10:43:23.676Z,51.97
2023-05-22T10:46:14.469Z,49.57
2023-05-22T10:49:03.922Z,49.14
2023-05-22T10:51:59.869Z,48.01
2023-05-22T10:54:53.564Z,47.39
2023-05-22T10:57:43.632Z,42.05
2023-05-22T11:00:33.036Z,47.90
2023-05-22T11:03:22.844Z,46.99
2023-05-22T11:06:35.242Z,46.66
2023-05-22T11:09:30.885Z,46.51
2023-05-22T11:12:31.122Z,43.91
2023-05-22T11:15:19.091Z,45.76
2023-05-22T11:18:07.924Z,44.90
2023-05-22T11:20:56.139Z,44.62
2023-05-22T11:23:44.089Z,39.52
2023-05-22T11:26:33.210Z,41.95
2023-05-22T11:29:25.063Z,42.00
2023-05-22T11:32:15.715Z,47.56
2023-05-22T11:35:05.352Z,44.88
2023-05-22T11:37:55.222Z,45.44
2023-05-22T11:40:43.830Z,46.83
2023-05-22T11:43:34.373Z,45.27
2023-05-22T11:46:23.567Z,44.61
2023-05-22T11:49:13.217Z,44.38
2023-05-22T11:52:01.182Z,46.03
2023-05-22T11:54:50.149Z,42.35
2023-05-22T11:57:39.383Z,41.45
2023-05-22T12:00:29.366Z,44.18
2023-05-22T12:03:18.878Z,36.13
2023-05-22T12:06:08.541Z,44.19
2023-05-22T12:08:56.243Z,41.21
2023-05-22T12:11:49.414Z,35.49
2023-05-22T12:14:37.056Z,37.45
2023-05-22T12:17:27.259Z,42.15
2023-05-22T12:20:16.348Z,43.45
2023-05-22T12:23:03.880Z,41.90
2023-05-22T12:26:02.289Z,41.89
2023-05-22T12:28:54.679Z,40.00
2023-05-22T12:31:44.365Z,41.87
2023-05-22T12:34:35.567Z,41.39
2023-05-22T12:37:26.789Z,32.72
2023-05-22T12:40:14.408Z,33.49
2023-05-22T12:43:02.374Z,36.39
2023-05-22T12:45:49.826Z,36.32
2023-05-22T12:48:39.270Z,41.75
2023-05-22T12:51:29.782Z,41.76
2023-05-22T12:54:20.735Z,41.54
2023-05-22T12:57:08.780Z,39.45
2023-05-22T12:59:58.549Z,39.06
2023-05-22T13:02:49.692Z,40.15
2023-05-22T13:05:37.760Z,40.61
2023-05-22T13:08:26.324Z,39.11
2023-05-22T13:11:15.342Z,33.96
2023-05-22T13:14:03.377Z,36.81
2023-05-22T13:16:51.409Z,34.09
2023-05-22T13:19:39.550Z,34.23
2023-05-22T13:22:27.441Z,44.47
2023-05-22T13:25:15.140Z,43.11
2023-05-22T13:28:04.435Z,32.51
2023-05-22T13:30:52.231Z,32.98
2023-05-22T13:33:40.092Z,30.47
2023-05-22T13:36:27.880Z,30.40
2023-05-22T13:39:18.224Z,38.90
2023-05-22T13:42:07.169Z,38.15
2023-05-22T13:44:56.504Z,41.58
2023-05-22T13:47:44.201Z,39.60
2023-05-22T13:50:32.110Z,35.94
2023-05-22T13:53:20.322Z,40.98
2023-05-22T13:56:08.251Z,33.52
2023-05-22T13:58:56.108Z,36.82
2023-05-22T14:01:45.060Z,42.59
2023-05-22T14:04:33.328Z,43.71
2023-05-22T14:07:20.969Z,42.02
2023-05-22T14:10:10.329Z,35.78
2023-05-22T14:12:57.896Z,34.38
2023-05-22T14:15:48.143Z,35.56
2023-05-22T14:18:37.572Z,32.76
2023-05-22T14:21:25.361Z,41.42
2023-05-22T14:24:13.477Z,36.89
2023-05-22T14:27:01.515Z,32.37
2023-05-22T14:29:49.179Z,41.07
2023-05-22T14:32:36.805Z,43.49
2023-05-22T14:35:25.932Z,41.30
2023-05-22T14:38:13.790Z,44.42
2023-05-22T14:41:01.342Z,39.25
2023-05-22T14:43:49.042Z,43.77
2023-05-22T14:46:36.935Z,43.09
2023-05-22T14:49:24.780Z,41.69
2023-05-22T14:52:13.678Z,41.54
2023-05-22T14:55:01.604Z,37.57
2023-05-22T14:57:49.249Z,39.89
2023-05-22T15:00:36.856Z,40.13
2023-05-22T15:03:24.363Z,40.66
2023-05-22T15:06:12.116Z,38.27
2023-05-22T15:09:01.972Z,40.79
2023-05-22T15:11:51.093Z,38.47
2023-05-22T15:14:39.311Z,41.45
2023-05-22T15:17:30.069Z,40.56
2023-05-22T15:20:18.332Z,39.74
2023-05-22T15:23:06.910Z,39.79
2023-05-22T15:25:56.612Z,40.28
2023-05-22T15:28:46.578Z,40.25
2023-05-22T15:31:34.301Z,39.01
2023-05-22T15:34:22.045Z,36.74
2023-05-22T15:37:09.625Z,38.88
2023-05-22T15:39:57.231Z,38.03
2023-05-22T15:42:46.247Z,41.35
2023-05-22T15:45:34.106Z,40.44
2023-05-22T15:48:21.896Z,39.48
2023-05-22T15:51:09.950Z,39.89
2023-05-22T15:53:58.674Z,39.13
2023-05-22T15:56:46.565Z,39.73
2023-05-22T15:59:35.518Z,39.23
2023-05-22T16:02:23.773Z,32.33
2023-05-22T16:05:11.902Z,39.25
2023-05-22T16:07:59.566Z,38.72
2023-05-22T16:10:47.347Z,38.79
2023-05-22T16:13:35.437Z,39.23
2023-05-22T16:16:24.471Z,39.31
2023-05-22T16:19:12.488Z,38.62
2023-05-22T16:22:00.152Z,38.73
2023-05-22T16:24:47.781Z,38.17
2023-05-22T16:27:35.439Z,38.12
2023-05-22T16:30:23.685Z,37.23
2023-05-22T16:33:13.237Z,36.82
2023-05-22T16:36:01.091Z,37.33
2023-05-22T16:38:48.717Z,36.46
2023-05-22T16:41:37.711Z,35.81
2023-05-22T16:44:25.598Z,34.95
2023-05-22T16:47:13.497Z,37.34
2023-05-22T16:50:02.796Z,37.22
2023-05-22T16:52:50.378Z,36.60
2023-05-22T16:55:38.710Z,37.40
2023-05-22T16:58:26.577Z,36.71
2023-05-22T17:01:14.902Z,36.56
2023-05-22T17:04:02.586Z,36.85
2023-05-22T17:06:53.737Z,36.88
2023-05-22T17:09:41.198Z,36.24
2023-05-22T17:12:28.814Z,36.80
2023-05-22T17:15:16.510Z,37.12
2023-05-22T17:18:04.078Z,37.93
2023-05-22T17:20:54.014Z,38.04
2023-05-22T17:23:43.627Z,39.00
2023-05-22T17:26:33.211Z,39.25
2023-05-22T17:29:20.884Z,40.18
2023-05-22T17:32:08.828Z,40.50
2023-05-22T17:34:56.295Z,41.83
2023-05-22T17:37:44.011Z,42.15
2023-05-22T17:40:44.660Z,42.36
2023-05-22T17:43:36.784Z,43.52
2023-05-22T17:46:26.584Z,43.97
2023-05-22T17:49:14.390Z,44.35
2023-05-22T17:52:02.457Z,44.75
2023-05-22T17:54:50.320Z,45.44
2023-05-22T17:57:39.398Z,46.38
2023-05-22T18:00:27.168Z,46.97
2023-05-22T18:03:15.002Z,47.73
2023-05-22T18:06:02.884Z,48.76
2023-05-22T18:08:50.731Z,49.74
2023-05-22T18:11:38.585Z,50.71
2023-05-22T18:14:27.929Z,51.50
2023-05-22T18:17:15.622Z,52.12
2023-05-22T18:20:04.270Z,52.78
2023-05-22T18:22:52.100Z,53.39
2023-05-22T18:25:40.184Z,54.02
2023-05-22T18:28:28.510Z,54.38
2023-05-22T18:31:18.145Z,55.35
2023-05-22T18:34:06.378Z,55.57
2023-05-22T18:36:55.794Z,56.44
2023-05-22T18:39:45.854Z,57.76
2023-05-22T18:42:36.358Z,58.11
2023-05-22T18:45:24.910Z,59.24
2023-05-22T18:48:14.470Z,59.90
2023-05-22T18:51:02.528Z,61.11
2023-05-22T18:53:52.209Z,61.67
2023-05-22T18:56:41.142Z,62.40
2023-05-22T18:59:30.953Z,62.32
2023-05-22T19:02:21.430Z,62.60
2023-05-22T19:05:11.993Z,63.25
2023-05-22T19:07:59.890Z,62.73
2023-05-22T19:10:47.653Z,63.00
2023-05-22T19:13:35.353Z,63.16
2023-05-22T19:16:22.966Z,63.64
2023-05-22T19:19:11.605Z,64.36
2023-05-22T19:22:01.097Z,64.61
2023-05-22T19:24:48.954Z,64.95
2023-05-22T19:27:38.987Z,65.66
2023-05-22T19:30:27.187Z,67.41
2023-05-22T19:33:16.946Z,67.83
2023-05-22T19:36:06.598Z,68.71
2023-05-22T19:38:55.924Z,69.92
2023-05-22T19:41:43.846Z,70.75
2023-05-22T19:44:31.482Z,71.99
2023-05-22T19:47:19.524Z,73.19
2023-05-22T19:50:09.328Z,74.30
2023-05-22T19:52:57.457Z,74.36
2023-05-22T19:55:47.750Z,76.48
2023-05-22T19:58:36.034Z,77.91
2023-05-22T20:01:24.630Z,78.16
2023-05-22T20:04:12.602Z,79.40
2023-05-22T20:07:02.308Z,80.21
2023-05-22T20:09:50.477Z,81.57
2023-05-22T20:12:39.936Z,82.72
2023-05-22T20:15:27.383Z,83.76
2023-05-22T20:18:15.416Z,85.53
2023-05-22T20:21:06.325Z,86.16
2023-05-22T20:23:55.526Z,87.27
2023-05-22T20:26:43.569Z,88.14
2023-05-22T20:29:32.749Z,88.41
2023-05-22T20:32:20.604Z,88.66
2023-05-22T20:35:10.932Z,88.82
2023-05-22T20:38:02.989Z,90.08
2023-05-22T20:40:52.071Z,90.20
2023-05-22T20:43:44.212Z,91.65
2023-05-22T20:46:33.835Z,92.52
2023-05-22T20:49:21.836Z,93.73
2023-05-22T20:52:10.067Z,94.36
2023-05-22T20:54:57.949Z,95.00
2023-05-22T20:57:45.556Z,95.29
2023-05-22T21:00:34.915Z,96.08
2023-05-22T21:03:25.811Z,97.03
2023-05-22T21:06:13.806Z,98.33
2023-05-22T21:09:01.743Z,100.00
2023-05-22T21:11:49.722Z,100.00
2023-05-22T21:14:37.321Z,100.00
2023-05-22T21:17:27.794Z,100.00
2023-05-22T21:20:17.493Z,100.00
2023-05-22T21:23:05.246Z,100.00
2023-05-22T21:25:52.944Z,100.00
2023-05-22T21:28:43.142Z,100.00
2023-05-22T21:31:31.845Z,100.00
2023-05-22T21:34:20.892Z,100.00
2023-05-22T21:37:10.157Z,100.00
2023-05-22T21:39:58.104Z,100.00
2023-05-22T21:42:47.327Z,100.00
2023-05-22T21:45:36.880Z,100.00
2023-05-22T21:48:24.656Z,100.00
2023-05-22T21:51:12.170Z,100.00
2023-05-22T21:54:01.459Z,100.00
2023-05-22T21:56:49.356Z,100.00
2023-05-22T21:59:37.112Z,100.00
2023-05-22T22:02:25.100Z,100.00
2023-05-22T22:05:13.047Z,100.00
2023-05-22T22:08:00.648Z,100.00
2023-05-22T22:10:49.606Z,100.00
2023-05-22T22:13:37.408Z,100.00
2023-05-22T22:16:26.152Z,100.00
2023-05-22T22:19:15.664Z,100.00
2023-05-22T22:22:03.932Z,100.00
2023-05-22T22:24:51.373Z,100.00
2023-05-22T22:27:40.206Z,100.00
2023-05-22T22:30:28.225Z,100.00
2023-05-22T22:33:16.473Z,100.00
2023-05-22T22:36:04.232Z,100.00
2023-05-22T22:38:51.705Z,100.00
2023-05-22T22:41:39.401Z,100.00
2023-05-22T22:44:28.413Z,100.00
2023-05-22T22:47:16.138Z,100.00
2023-05-22T22:50:04.026Z,100.00
2023-05-22T22:52:52.129Z,100.00
2023-05-22T22:55:40.192Z,100.00
2023-05-22T22:58:27.999Z,100.00
2023-05-22T23:01:16.959Z,100.00
2023-05-22T23:04:04.775Z,100.00
2023-05-22T23:06:52.685Z,100.00
2023-05-22T23:09:40.585Z,100.00
2023-05-22T23:12:28.554Z,100.00
2023-05-22T23:15:24.282Z,100.00
2023-05-22T23:18:13.974Z,100.00
2023-05-22T23:21:01.643Z,100.00
2023-05-22T23:23:49.136Z,100.00
2023-05-22T23:26:37.029Z,100.00
2023-05-22T23:29:24.810Z,100.00
2023-05-22T23:32:14.597Z,100.00
2023-05-22T23:35:05.775Z,100.00
2023-05-22T23:37:56.366Z,100.00
2023-05-22T23:40:43.858Z,100.00
2023-05-22T23:43:31.621Z,100.00
2023-05-22T23:46:21.219Z,100.00
2023-05-22T23:49:09.203Z,100.00
2023-05-22T23:51:58.227Z,100.00
2023-05-22T23:54:46.245Z,100.00
2023-05-22T23:57:36.945Z,100.00
